sensor_id;sensor_type;location;lat;lon;timestamp;P1;durP1;ratioP1;P2;durP2;ratioP2
16502;SDS011;53067;48.114;11.694;2023-02-11T00:01:12;17.20;;;11.77;;
16502;SDS011;53067;48.114;11.694;2023-02-11T00:03:41;14.83;;;10.33;;
16502;SDS011;53067;48.114;11.694;2023-02-11T00:06:09;15.93;;;11.23;;
16502;SDS011;53067;48.114;11.694;2023-02-11T00:08:37;18.47;;;11.43;;
16502;SDS011;53067;48.114;11.694;2023-02-11T00:11:05;19.33;;;11.13;;
16502;SDS011;53067;48.114;11.694;2023-02-11T00:13:33;17.93;;;11.47;;
16502;SDS011;53067;48.114;11.694;2023-02-11T00:16:04;17.37;;;10.83;;
16502;SDS011;53067;48.114;11.694;2023-02-11T00:18:34;15.07;;;10.43;;
16502;SDS011;53067;48.114;11.694;2023-02-11T00:21:05;15.20;;;11.13;;
16502;SDS011;53067;48.114;11.694;2023-02-11T00:23:35;15.80;;;10.70;;
16502;SDS011;53067;48.114;11.694;2023-02-11T00:26:03;20.43;;;11.63;;
16502;SDS011;53067;48.114;11.694;2023-02-11T00:28:32;16.63;;;11.27;;
16502;SDS011;53067;48.114;11.694;2023-02-11T00:31:00;16.00;;;10.73;;
16502;SDS011;53067;48.114;11.694;2023-02-11T00:33:27;15.07;;;10.53;;
16502;SDS011;53067;48.114;11.694;2023-02-11T00:35:55;15.00;;;9.63;;
16502;SDS011;53067;48.114;11.694;2023-02-11T00:38:22;16.83;;;11.17;;
16502;SDS011;53067;48.114;11.694;2023-02-11T00:40:50;15.50;;;10.17;;
16502;SDS011;53067;48.114;11.694;2023-02-11T00:43:17;15.33;;;10.60;;
16502;SDS011;53067;48.114;11.694;2023-02-11T00:45:45;14.93;;;10.17;;
16502;SDS011;53067;48.114;11.694;2023-02-11T00:48:12;14.97;;;10.37;;
16502;SDS011;53067;48.114;11.694;2023-02-11T00:50:40;17.63;;;11.33;;
16502;SDS011;53067;48.114;11.694;2023-02-11T00:53:07;15.90;;;10.10;;
16502;SDS011;53067;48.114;11.694;2023-02-11T00:55:35;17.70;;;10.37;;
16502;SDS011;53067;48.114;11.694;2023-02-11T00:58:02;12.87;;;10.43;;
16502;SDS011;53067;48.114;11.694;2023-02-11T01:00:30;13.47;;;10.50;;
16502;SDS011;53067;48.114;11.694;2023-02-11T01:02:57;15.23;;;10.57;;
16502;SDS011;53067;48.114;11.694;2023-02-11T01:05:25;15.83;;;10.23;;
16502;SDS011;53067;48.114;11.694;2023-02-11T01:07:52;14.27;;;10.57;;
16502;SDS011;53067;48.114;11.694;2023-02-11T01:10:20;13.77;;;9.67;;
16502;SDS011;53067;48.114;11.694;2023-02-11T01:12:47;13.40;;;9.43;;
16502;SDS011;53067;48.114;11.694;2023-02-11T01:15:16;16.20;;;9.57;;
16502;SDS011;53067;48.114;11.694;2023-02-11T01:17:44;13.57;;;9.77;;
16502;SDS011;53067;48.114;11.694;2023-02-11T01:20:16;11.77;;;8.33;;
16502;SDS011;53067;48.114;11.694;2023-02-11T01:22:46;13.13;;;8.90;;
16502;SDS011;53067;48.114;11.694;2023-02-11T01:25:13;12.50;;;9.50;;
16502;SDS011;53067;48.114;11.694;2023-02-11T01:27:41;14.23;;;9.97;;
16502;SDS011;53067;48.114;11.694;2023-02-11T01:30:09;15.90;;;10.23;;
16502;SDS011;53067;48.114;11.694;2023-02-11T01:32:39;11.43;;;8.70;;
16502;SDS011;53067;48.114;11.694;2023-02-11T01:35:07;10.03;;;7.80;;
16502;SDS011;53067;48.114;11.694;2023-02-11T01:37:34;9.67;;;8.53;;
16502;SDS011;53067;48.114;11.694;2023-02-11T01:40:04;12.17;;;8.50;;
16502;SDS011;53067;48.114;11.694;2023-02-11T01:42:33;14.73;;;8.60;;
16502;SDS011;53067;48.114;11.694;2023-02-11T01:45:02;12.63;;;8.47;;
16502;SDS011;53067;48.114;11.694;2023-02-11T01:47:31;11.10;;;7.37;;
16502;SDS011;53067;48.114;11.694;2023-02-11T01:49:59;12.87;;;8.27;;
16502;SDS011;53067;48.114;11.694;2023-02-11T01:52:30;10.30;;;8.00;;
16502;SDS011;53067;48.114;11.694;2023-02-11T01:55:01;12.73;;;7.70;;
16502;SDS011;53067;48.114;11.694;2023-02-11T01:57:49;10.10;;;8.00;;
16502;SDS011;53067;48.114;11.694;2023-02-11T02:00:19;12.40;;;7.83;;
16502;SDS011;53067;48.114;11.694;2023-02-11T02:02:51;11.00;;;7.97;;
16502;SDS011;53067;48.114;11.694;2023-02-11T02:05:25;12.10;;;8.07;;
16502;SDS011;53067;48.114;11.694;2023-02-11T02:07:59;11.77;;;8.00;;
16502;SDS011;53067;48.114;11.694;2023-02-11T02:10:46;8.70;;;7.67;;
16502;SDS011;53067;48.114;11.694;2023-02-11T02:13:17;11.17;;;8.00;;
16502;SDS011;53067;48.114;11.694;2023-02-11T02:15:49;11.50;;;7.77;;
16502;SDS011;53067;48.114;11.694;2023-02-11T02:20:59;10.27;;;8.13;;
16502;SDS011;53067;48.114;11.694;2023-02-11T02:23:30;12.37;;;8.27;;
16502;SDS011;53067;48.114;11.694;2023-02-11T02:35:00;11.73;;;8.00;;
16502;SDS011;53067;48.114;11.694;2023-02-11T02:37:50;10.23;;;7.53;;
16502;SDS011;53067;48.114;11.694;2023-02-11T02:40:44;10.33;;;7.83;;
16502;SDS011;53067;48.114;11.694;2023-02-11T02:43:16;10.40;;;7.63;;
16502;SDS011;53067;48.114;11.694;2023-02-11T02:45:44;10.80;;;7.40;;
16502;SDS011;53067;48.114;11.694;2023-02-11T02:48:29;11.20;;;7.97;;
16502;SDS011;53067;48.114;11.694;2023-02-11T02:51:05;10.37;;;7.60;;
16502;SDS011;53067;48.114;11.694;2023-02-11T02:59:27;11.53;;;8.03;;
16502;SDS011;53067;48.114;11.694;2023-02-11T03:02:17;7.30;;;6.50;;
16502;SDS011;53067;48.114;11.694;2023-02-11T03:04:54;11.17;;;7.40;;
16502;SDS011;53067;48.114;11.694;2023-02-11T03:07:39;9.77;;;7.60;;
16502;SDS011;53067;48.114;11.694;2023-02-11T03:10:12;9.57;;;6.77;;
16502;SDS011;53067;48.114;11.694;2023-02-11T03:12:52;10.03;;;6.63;;
16502;SDS011;53067;48.114;11.694;2023-02-11T03:15:22;10.43;;;7.23;;
16502;SDS011;53067;48.114;11.694;2023-02-11T03:17:53;7.53;;;6.17;;
16502;SDS011;53067;48.114;11.694;2023-02-11T03:20:22;8.03;;;5.97;;
16502;SDS011;53067;48.114;11.694;2023-02-11T03:25:43;7.07;;;5.83;;
16502;SDS011;53067;48.114;11.694;2023-02-11T03:28:37;9.30;;;5.97;;
16502;SDS011;53067;48.114;11.694;2023-02-11T03:31:19;7.93;;;5.57;;
16502;SDS011;53067;48.114;11.694;2023-02-11T03:34:42;8.13;;;6.03;;
16502;SDS011;53067;48.114;11.694;2023-02-11T03:39:06;9.33;;;6.20;;
16502;SDS011;53067;48.114;11.694;2023-02-11T03:41:36;9.30;;;5.77;;
16502;SDS011;53067;48.114;11.694;2023-02-11T03:44:05;6.17;;;5.47;;
16502;SDS011;53067;48.114;11.694;2023-02-11T03:46:35;6.20;;;5.30;;
16502;SDS011;53067;48.114;11.694;2023-02-11T03:49:10;7.57;;;5.33;;
16502;SDS011;53067;48.114;11.694;2023-02-11T03:51:35;7.67;;;5.30;;
16502;SDS011;53067;48.114;11.694;2023-02-11T03:54:05;6.57;;;5.87;;
16502;SDS011;53067;48.114;11.694;2023-02-11T03:56:37;9.03;;;5.70;;
16502;SDS011;53067;48.114;11.694;2023-02-11T03:59:11;8.30;;;5.80;;
16502;SDS011;53067;48.114;11.694;2023-02-11T04:01:38;7.07;;;5.30;;
16502;SDS011;53067;48.114;11.694;2023-02-11T04:04:06;8.63;;;5.23;;
16502;SDS011;53067;48.114;11.694;2023-02-11T04:06:34;5.47;;;4.97;;
16502;SDS011;53067;48.114;11.694;2023-02-11T04:09:01;6.77;;;5.17;;
16502;SDS011;53067;48.114;11.694;2023-02-11T04:11:29;8.60;;;5.20;;
16502;SDS011;53067;48.114;11.694;2023-02-11T04:13:56;5.13;;;4.63;;
16502;SDS011;53067;48.114;11.694;2023-02-11T04:16:24;5.33;;;4.60;;
16502;SDS011;53067;48.114;11.694;2023-02-11T04:18:51;6.43;;;4.87;;
16502;SDS011;53067;48.114;11.694;2023-02-11T04:21:19;8.07;;;5.20;;
16502;SDS011;53067;48.114;11.694;2023-02-11T04:23:48;6.47;;;4.23;;
16502;SDS011;53067;48.114;11.694;2023-02-11T04:26:15;7.93;;;5.97;;
16502;SDS011;53067;48.114;11.694;2023-02-11T04:28:43;5.83;;;4.70;;
16502;SDS011;53067;48.114;11.694;2023-02-11T04:31:10;7.90;;;5.33;;
16502;SDS011;53067;48.114;11.694;2023-02-11T04:33:38;8.00;;;5.47;;
16502;SDS011;53067;48.114;11.694;2023-02-11T04:36:07;6.30;;;5.40;;
16502;SDS011;53067;48.114;11.694;2023-02-11T04:38:39;6.77;;;4.73;;
16502;SDS011;53067;48.114;11.694;2023-02-11T04:41:06;6.77;;;4.83;;
16502;SDS011;53067;48.114;11.694;2023-02-11T04:43:34;7.97;;;5.40;;
16502;SDS011;53067;48.114;11.694;2023-02-11T04:46:01;7.47;;;5.13;;
16502;SDS011;53067;48.114;11.694;2023-02-11T04:48:29;5.77;;;4.17;;
16502;SDS011;53067;48.114;11.694;2023-02-11T04:50:56;4.77;;;4.10;;
16502;SDS011;53067;48.114;11.694;2023-02-11T04:53:24;7.43;;;4.90;;
16502;SDS011;53067;48.114;11.694;2023-02-11T04:55:51;6.53;;;4.70;;
16502;SDS011;53067;48.114;11.694;2023-02-11T04:58:19;5.37;;;4.60;;
16502;SDS011;53067;48.114;11.694;2023-02-11T05:00:46;4.83;;;4.30;;
16502;SDS011;53067;48.114;11.694;2023-02-11T05:03:14;4.37;;;3.97;;
16502;SDS011;53067;48.114;11.694;2023-02-11T05:05:42;5.43;;;4.70;;
16502;SDS011;53067;48.114;11.694;2023-02-11T05:08:10;5.63;;;4.60;;
16502;SDS011;53067;48.114;11.694;2023-02-11T05:10:38;5.60;;;4.33;;
16502;SDS011;53067;48.114;11.694;2023-02-11T05:13:06;8.77;;;5.07;;
16502;SDS011;53067;48.114;11.694;2023-02-11T05:15:33;5.23;;;4.33;;
16502;SDS011;53067;48.114;11.694;2023-02-11T05:18:01;6.10;;;5.10;;
16502;SDS011;53067;48.114;11.694;2023-02-11T05:20:28;5.13;;;4.57;;
16502;SDS011;53067;48.114;11.694;2023-02-11T05:22:56;6.37;;;5.37;;
16502;SDS011;53067;48.114;11.694;2023-02-11T05:25:23;8.17;;;4.23;;
16502;SDS011;53067;48.114;11.694;2023-02-11T05:27:51;6.33;;;5.13;;
16502;SDS011;53067;48.114;11.694;2023-02-11T05:30:18;6.73;;;4.77;;
16502;SDS011;53067;48.114;11.694;2023-02-11T05:32:46;5.80;;;4.30;;
16502;SDS011;53067;48.114;11.694;2023-02-11T05:35:13;5.20;;;4.70;;
16502;SDS011;53067;48.114;11.694;2023-02-11T05:37:41;5.37;;;4.47;;
16502;SDS011;53067;48.114;11.694;2023-02-11T05:40:08;6.00;;;4.30;;
16502;SDS011;53067;48.114;11.694;2023-02-11T05:42:37;5.13;;;4.63;;
16502;SDS011;53067;48.114;11.694;2023-02-11T05:45:04;6.17;;;4.70;;
16502;SDS011;53067;48.114;11.694;2023-02-11T05:47:32;6.80;;;4.90;;
16502;SDS011;53067;48.114;11.694;2023-02-11T05:50:00;6.13;;;5.07;;
16502;SDS011;53067;48.114;11.694;2023-02-11T05:52:27;5.03;;;4.13;;
16502;SDS011;53067;48.114;11.694;2023-02-11T05:54:55;6.50;;;4.80;;
16502;SDS011;53067;48.114;11.694;2023-02-11T05:57:22;5.27;;;4.60;;
16502;SDS011;53067;48.114;11.694;2023-02-11T05:59:50;6.40;;;4.70;;
16502;SDS011;53067;48.114;11.694;2023-02-11T06:02:17;5.43;;;4.40;;
16502;SDS011;53067;48.114;11.694;2023-02-11T06:04:45;7.03;;;5.00;;
16502;SDS011;53067;48.114;11.694;2023-02-11T06:07:12;5.07;;;4.23;;
16502;SDS011;53067;48.114;11.694;2023-02-11T06:09:40;4.57;;;4.07;;
16502;SDS011;53067;48.114;11.694;2023-02-11T06:12:07;5.40;;;4.07;;
16502;SDS011;53067;48.114;11.694;2023-02-11T06:14:35;5.73;;;3.97;;
16502;SDS011;53067;48.114;11.694;2023-02-11T06:17:03;8.50;;;4.40;;
16502;SDS011;53067;48.114;11.694;2023-02-11T06:19:30;6.33;;;4.70;;
16502;SDS011;53067;48.114;11.694;2023-02-11T06:21:58;4.80;;;4.27;;
16502;SDS011;53067;48.114;11.694;2023-02-11T06:24:25;6.40;;;4.30;;
16502;SDS011;53067;48.114;11.694;2023-02-11T06:26:53;4.73;;;4.00;;
16502;SDS011;53067;48.114;11.694;2023-02-11T06:29:20;8.23;;;4.67;;
16502;SDS011;53067;48.114;11.694;2023-02-11T06:31:48;5.43;;;4.63;;
16502;SDS011;53067;48.114;11.694;2023-02-11T06:34:15;5.83;;;4.90;;
16502;SDS011;53067;48.114;11.694;2023-02-11T06:36:43;4.80;;;4.30;;
16502;SDS011;53067;48.114;11.694;2023-02-11T06:39:11;5.00;;;4.40;;
16502;SDS011;53067;48.114;11.694;2023-02-11T06:41:39;5.87;;;4.83;;
16502;SDS011;53067;48.114;11.694;2023-02-11T06:44:06;5.90;;;4.30;;
16502;SDS011;53067;48.114;11.694;2023-02-11T06:46:34;5.37;;;4.10;;
16502;SDS011;53067;48.114;11.694;2023-02-11T06:49:01;5.13;;;3.90;;
16502;SDS011;53067;48.114;11.694;2023-02-11T06:51:29;6.47;;;3.97;;
16502;SDS011;53067;48.114;11.694;2023-02-11T06:53:56;5.07;;;4.27;;
16502;SDS011;53067;48.114;11.694;2023-02-11T06:56:24;6.17;;;4.53;;
16502;SDS011;53067;48.114;11.694;2023-02-11T06:58:55;4.27;;;3.87;;
16502;SDS011;53067;48.114;11.694;2023-02-11T07:01:23;6.27;;;4.53;;
16502;SDS011;53067;48.114;11.694;2023-02-11T07:03:52;9.43;;;7.03;;
16502;SDS011;53067;48.114;11.694;2023-02-11T07:06:21;6.93;;;4.50;;
16502;SDS011;53067;48.114;11.694;2023-02-11T07:08:52;5.90;;;4.20;;
16502;SDS011;53067;48.114;11.694;2023-02-11T07:11:22;4.90;;;3.70;;
16502;SDS011;53067;48.114;11.694;2023-02-11T07:13:52;4.20;;;3.80;;
16502;SDS011;53067;48.114;11.694;2023-02-11T07:16:21;5.53;;;5.00;;
16502;SDS011;53067;48.114;11.694;2023-02-11T07:18:49;5.67;;;4.53;;
16502;SDS011;53067;48.114;11.694;2023-02-11T07:21:18;6.80;;;4.40;;
16502;SDS011;53067;48.114;11.694;2023-02-11T07:23:47;5.47;;;3.67;;
16502;SDS011;53067;48.114;11.694;2023-02-11T07:26:17;6.53;;;4.00;;
16502;SDS011;53067;48.114;11.694;2023-02-11T07:28:48;5.50;;;3.83;;
16502;SDS011;53067;48.114;11.694;2023-02-11T07:31:28;4.17;;;3.63;;
16502;SDS011;53067;48.114;11.694;2023-02-11T07:33:57;4.50;;;3.70;;
16502;SDS011;53067;48.114;11.694;2023-02-11T07:36:27;3.73;;;3.40;;
16502;SDS011;53067;48.114;11.694;2023-02-11T07:38:56;4.63;;;3.90;;
16502;SDS011;53067;48.114;11.694;2023-02-11T07:41:25;4.20;;;3.80;;
16502;SDS011;53067;48.114;11.694;2023-02-11T07:43:53;4.43;;;3.87;;
16502;SDS011;53067;48.114;11.694;2023-02-11T07:46:25;4.43;;;4.03;;
16502;SDS011;53067;48.114;11.694;2023-02-11T07:48:53;4.10;;;3.70;;
16502;SDS011;53067;48.114;11.694;2023-02-11T07:51:23;4.37;;;3.73;;
16502;SDS011;53067;48.114;11.694;2023-02-11T07:53:51;6.23;;;4.23;;
16502;SDS011;53067;48.114;11.694;2023-02-11T07:56:21;5.13;;;3.90;;
16502;SDS011;53067;48.114;11.694;2023-02-11T07:58:49;10.53;;;4.93;;
16502;SDS011;53067;48.114;11.694;2023-02-11T08:01:18;14.07;;;4.07;;
16502;SDS011;53067;48.114;11.694;2023-02-11T08:03:49;4.83;;;3.90;;
16502;SDS011;53067;48.114;11.694;2023-02-11T08:06:18;5.13;;;3.70;;
16502;SDS011;53067;48.114;11.694;2023-02-11T08:08:48;5.13;;;3.83;;
16502;SDS011;53067;48.114;11.694;2023-02-11T08:11:20;4.83;;;4.20;;
16502;SDS011;53067;48.114;11.694;2023-02-11T08:13:50;4.30;;;3.90;;
16502;SDS011;53067;48.114;11.694;2023-02-11T08:16:19;4.30;;;3.73;;
16502;SDS011;53067;48.114;11.694;2023-02-11T08:18:48;9.17;;;5.03;;
16502;SDS011;53067;48.114;11.694;2023-02-11T08:21:17;5.83;;;4.57;;
16502;SDS011;53067;48.114;11.694;2023-02-11T08:23:46;7.07;;;5.30;;
16502;SDS011;53067;48.114;11.694;2023-02-11T08:26:16;5.30;;;4.73;;
16502;SDS011;53067;48.114;11.694;2023-02-11T08:28:48;6.60;;;5.07;;
16502;SDS011;53067;48.114;11.694;2023-02-11T08:31:18;8.30;;;5.33;;
16502;SDS011;53067;48.114;11.694;2023-02-11T08:33:47;7.43;;;5.40;;
16502;SDS011;53067;48.114;11.694;2023-02-11T08:36:17;9.43;;;6.77;;
16502;SDS011;53067;48.114;11.694;2023-02-11T08:38:46;9.00;;;5.23;;
16502;SDS011;53067;48.114;11.694;2023-02-11T08:41:14;6.60;;;5.57;;
16502;SDS011;53067;48.114;11.694;2023-02-11T08:43:42;7.93;;;5.17;;
16502;SDS011;53067;48.114;11.694;2023-02-11T08:46:12;5.60;;;5.10;;
16502;SDS011;53067;48.114;11.694;2023-02-11T08:48:41;7.40;;;5.20;;
16502;SDS011;53067;48.114;11.694;2023-02-11T08:51:16;6.10;;;4.73;;
16502;SDS011;53067;48.114;11.694;2023-02-11T08:53:41;6.63;;;4.97;;
16502;SDS011;53067;48.114;11.694;2023-02-11T08:56:09;8.73;;;5.60;;
16502;SDS011;53067;48.114;11.694;2023-02-11T08:58:37;6.73;;;5.13;;
16502;SDS011;53067;48.114;11.694;2023-02-11T09:01:09;8.73;;;5.63;;
16502;SDS011;53067;48.114;11.694;2023-02-11T09:03:37;11.50;;;5.70;;
16502;SDS011;53067;48.114;11.694;2023-02-11T09:06:05;10.13;;;5.73;;
16502;SDS011;53067;48.114;11.694;2023-02-11T09:08:34;7.90;;;5.90;;
16502;SDS011;53067;48.114;11.694;2023-02-11T09:11:03;10.80;;;6.20;;
16502;SDS011;53067;48.114;11.694;2023-02-11T09:13:32;9.80;;;5.97;;
16502;SDS011;53067;48.114;11.694;2023-02-11T09:16:00;8.67;;;5.37;;
16502;SDS011;53067;48.114;11.694;2023-02-11T09:18:30;7.73;;;5.07;;
16502;SDS011;53067;48.114;11.694;2023-02-11T09:21:01;8.30;;;5.63;;
16502;SDS011;53067;48.114;11.694;2023-02-11T09:23:30;7.80;;;5.20;;
16502;SDS011;53067;48.114;11.694;2023-02-11T09:26:11;8.27;;;5.17;;
16502;SDS011;53067;48.114;11.694;2023-02-11T09:28:32;6.63;;;5.23;;
16502;SDS011;53067;48.114;11.694;2023-02-11T09:31:03;5.20;;;4.70;;
16502;SDS011;53067;48.114;11.694;2023-02-11T09:33:32;7.27;;;5.20;;
16502;SDS011;53067;48.114;11.694;2023-02-11T09:36:03;5.63;;;4.93;;
16502;SDS011;53067;48.114;11.694;2023-02-11T09:38:32;7.83;;;5.30;;
16502;SDS011;53067;48.114;11.694;2023-02-11T09:40:59;6.50;;;4.77;;
16502;SDS011;53067;48.114;11.694;2023-02-11T09:43:36;5.70;;;5.20;;
16502;SDS011;53067;48.114;11.694;2023-02-11T09:46:07;8.13;;;5.10;;
16502;SDS011;53067;48.114;11.694;2023-02-11T09:48:37;6.53;;;4.70;;
16502;SDS011;53067;48.114;11.694;2023-02-11T09:51:14;6.63;;;4.47;;
16502;SDS011;53067;48.114;11.694;2023-02-11T09:53:41;9.70;;;4.80;;
16502;SDS011;53067;48.114;11.694;2023-02-11T09:56:10;6.30;;;4.23;;
16502;SDS011;53067;48.114;11.694;2023-02-11T09:58:40;7.20;;;5.00;;
16502;SDS011;53067;48.114;11.694;2023-02-11T10:09:24;10.67;;;4.93;;
16502;SDS011;53067;48.114;11.694;2023-02-11T10:22:45;10.13;;;6.27;;
16502;SDS011;53067;48.114;11.694;2023-02-11T10:25:27;9.23;;;5.77;;
16502;SDS011;53067;48.114;11.694;2023-02-11T10:27:52;6.90;;;5.50;;
16502;SDS011;53067;48.114;11.694;2023-02-11T10:30:30;10.57;;;6.73;;
16502;SDS011;53067;48.114;11.694;2023-02-11T10:33:03;11.30;;;7.33;;
16502;SDS011;53067;48.114;11.694;2023-02-11T10:35:50;9.77;;;6.07;;
16502;SDS011;53067;48.114;11.694;2023-02-11T10:38:18;12.67;;;6.87;;
16502;SDS011;53067;48.114;11.694;2023-02-11T10:40:46;9.47;;;6.37;;
16502;SDS011;53067;48.114;11.694;2023-02-11T10:43:14;9.67;;;6.47;;
16502;SDS011;53067;48.114;11.694;2023-02-11T10:45:46;10.57;;;6.63;;
16502;SDS011;53067;48.114;11.694;2023-02-11T10:51:22;9.47;;;6.83;;
16502;SDS011;53067;48.114;11.694;2023-02-11T10:56:37;12.90;;;7.87;;
16502;SDS011;53067;48.114;11.694;2023-02-11T10:59:24;8.03;;;6.93;;
16502;SDS011;53067;48.114;11.694;2023-02-11T11:02:00;13.13;;;8.23;;
16502;SDS011;53067;48.114;11.694;2023-02-11T11:04:40;12.00;;;6.77;;
16502;SDS011;53067;48.114;11.694;2023-02-11T11:12:28;12.97;;;7.77;;
16502;SDS011;53067;48.114;11.694;2023-02-11T11:22:50;10.07;;;7.17;;
16502;SDS011;53067;48.114;11.694;2023-02-11T11:25:21;10.43;;;7.33;;
16502;SDS011;53067;48.114;11.694;2023-02-11T11:27:56;10.10;;;7.60;;
16502;SDS011;53067;48.114;11.694;2023-02-11T11:30:27;10.73;;;7.60;;
16502;SDS011;53067;48.114;11.694;2023-02-11T11:32:59;10.97;;;7.97;;
16502;SDS011;53067;48.114;11.694;2023-02-11T11:35:28;15.50;;;8.00;;
16502;SDS011;53067;48.114;11.694;2023-02-11T11:38:00;12.53;;;7.60;;
16502;SDS011;53067;48.114;11.694;2023-02-11T11:40:31;12.20;;;6.83;;
16502;SDS011;53067;48.114;11.694;2023-02-11T11:43:02;11.13;;;6.57;;
16502;SDS011;53067;48.114;11.694;2023-02-11T11:45:53;14.50;;;6.67;;
16502;SDS011;53067;48.114;11.694;2023-02-11T11:48:30;12.07;;;8.10;;
16502;SDS011;53067;48.114;11.694;2023-02-11T11:51:03;12.33;;;7.30;;
16502;SDS011;53067;48.114;11.694;2023-02-11T11:53:40;9.30;;;7.20;;
16502;SDS011;53067;48.114;11.694;2023-02-11T11:56:26;11.43;;;6.67;;
16502;SDS011;53067;48.114;11.694;2023-02-11T11:59:01;9.57;;;6.80;;
16502;SDS011;53067;48.114;11.694;2023-02-11T12:01:45;12.67;;;7.87;;
16502;SDS011;53067;48.114;11.694;2023-02-11T12:10:17;9.60;;;6.93;;
16502;SDS011;53067;48.114;11.694;2023-02-11T12:12:52;9.17;;;7.20;;
16502;SDS011;53067;48.114;11.694;2023-02-11T12:15:37;11.73;;;6.70;;
16502;SDS011;53067;48.114;11.694;2023-02-11T12:18:17;11.87;;;6.90;;
16502;SDS011;53067;48.114;11.694;2023-02-11T12:23:57;13.67;;;7.07;;
16502;SDS011;53067;48.114;11.694;2023-02-11T12:31:52;10.40;;;7.60;;
16502;SDS011;53067;48.114;11.694;2023-02-11T12:34:40;12.50;;;6.57;;
16502;SDS011;53067;48.114;11.694;2023-02-11T12:40:11;7.70;;;6.50;;
16502;SDS011;53067;48.114;11.694;2023-02-11T12:57:07;12.23;;;7.00;;
16502;SDS011;53067;48.114;11.694;2023-02-11T13:02:53;11.87;;;7.27;;
16502;SDS011;53067;48.114;11.694;2023-02-11T13:05:26;12.27;;;6.77;;
16502;SDS011;53067;48.114;11.694;2023-02-11T13:08:10;7.23;;;5.97;;
16502;SDS011;53067;48.114;11.694;2023-02-11T13:10:49;12.90;;;6.00;;
16502;SDS011;53067;48.114;11.694;2023-02-11T13:13:24;9.30;;;5.87;;
16502;SDS011;53067;48.114;11.694;2023-02-11T13:15:50;8.53;;;6.33;;
16502;SDS011;53067;48.114;11.694;2023-02-11T13:29:19;8.80;;;6.60;;
16502;SDS011;53067;48.114;11.694;2023-02-11T13:32:05;10.93;;;6.73;;
16502;SDS011;53067;48.114;11.694;2023-02-11T13:37:21;11.93;;;7.37;;
16502;SDS011;53067;48.114;11.694;2023-02-11T13:42:27;9.33;;;6.90;;
16502;SDS011;53067;48.114;11.694;2023-02-11T13:44:56;10.87;;;6.53;;
16502;SDS011;53067;48.114;11.694;2023-02-11T13:47:25;14.03;;;7.90;;
16502;SDS011;53067;48.114;11.694;2023-02-11T13:49:58;11.00;;;6.80;;
16502;SDS011;53067;48.114;11.694;2023-02-11T13:52:34;8.67;;;6.57;;
16502;SDS011;53067;48.114;11.694;2023-02-11T13:55:08;10.97;;;6.60;;
16502;SDS011;53067;48.114;11.694;2023-02-11T14:14:25;9.70;;;6.23;;
16502;SDS011;53067;48.114;11.694;2023-02-11T14:19:34;12.60;;;6.73;;
16502;SDS011;53067;48.114;11.694;2023-02-11T14:22:05;11.57;;;6.20;;
16502;SDS011;53067;48.114;11.694;2023-02-11T14:24:39;10.50;;;6.10;;
16502;SDS011;53067;48.114;11.694;2023-02-11T14:30:09;11.40;;;6.63;;
16502;SDS011;53067;48.114;11.694;2023-02-11T14:33:02;8.37;;;6.57;;
16502;SDS011;53067;48.114;11.694;2023-02-11T14:35:33;11.77;;;7.60;;
16502;SDS011;53067;48.114;11.694;2023-02-11T14:41:20;12.27;;;7.03;;
16502;SDS011;53067;48.114;11.694;2023-02-11T14:43:55;9.13;;;6.60;;
16502;SDS011;53067;48.114;11.694;2023-02-11T14:46:25;10.70;;;6.63;;
16502;SDS011;53067;48.114;11.694;2023-02-11T14:48:56;10.80;;;7.43;;
16502;SDS011;53067;48.114;11.694;2023-02-11T14:51:30;9.40;;;7.13;;
16502;SDS011;53067;48.114;11.694;2023-02-11T14:54:20;11.60;;;7.40;;
16502;SDS011;53067;48.114;11.694;2023-02-11T14:56:41;11.60;;;7.37;;
16502;SDS011;53067;48.114;11.694;2023-02-11T14:59:16;16.73;;;8.20;;
16502;SDS011;53067;48.114;11.694;2023-02-11T15:01:45;12.07;;;8.00;;
16502;SDS011;53067;48.114;11.694;2023-02-11T15:04:21;10.73;;;7.57;;
16502;SDS011;53067;48.114;11.694;2023-02-11T15:06:50;11.97;;;7.40;;
16502;SDS011;53067;48.114;11.694;2023-02-11T15:09:39;12.00;;;7.30;;
16502;SDS011;53067;48.114;11.694;2023-02-11T15:12:15;13.90;;;8.27;;
16502;SDS011;53067;48.114;11.694;2023-02-11T15:14:45;15.00;;;8.57;;
16502;SDS011;53067;48.114;11.694;2023-02-11T15:17:15;10.60;;;7.50;;
16502;SDS011;53067;48.114;11.694;2023-02-11T15:19:46;12.33;;;8.17;;
16502;SDS011;53067;48.114;11.694;2023-02-11T15:22:32;14.40;;;7.80;;
16502;SDS011;53067;48.114;11.694;2023-02-11T15:27:41;11.73;;;7.77;;
16502;SDS011;53067;48.114;11.694;2023-02-11T15:32:54;12.17;;;8.80;;
16502;SDS011;53067;48.114;11.694;2023-02-11T15:35:31;12.73;;;8.33;;
16502;SDS011;53067;48.114;11.694;2023-02-11T15:38:08;14.93;;;8.37;;
16502;SDS011;53067;48.114;11.694;2023-02-11T15:40:37;12.10;;;8.43;;
16502;SDS011;53067;48.114;11.694;2023-02-11T15:43:06;9.93;;;7.57;;
16502;SDS011;53067;48.114;11.694;2023-02-11T15:45:36;14.03;;;9.10;;
16502;SDS011;53067;48.114;11.694;2023-02-11T15:48:11;13.77;;;9.40;;
16502;SDS011;53067;48.114;11.694;2023-02-11T15:50:53;13.03;;;10.37;;
16502;SDS011;53067;48.114;11.694;2023-02-11T15:53:28;14.43;;;9.27;;
16502;SDS011;53067;48.114;11.694;2023-02-11T15:56:15;11.87;;;8.53;;
16502;SDS011;53067;48.114;11.694;2023-02-11T15:58:56;14.03;;;9.43;;
16502;SDS011;53067;48.114;11.694;2023-02-11T16:01:31;17.77;;;10.60;;
16502;SDS011;53067;48.114;11.694;2023-02-11T16:03:59;13.70;;;10.40;;
16502;SDS011;53067;48.114;11.694;2023-02-11T16:06:40;18.20;;;11.53;;
16502;SDS011;53067;48.114;11.694;2023-02-11T16:09:26;14.67;;;10.73;;
16502;SDS011;53067;48.114;11.694;2023-02-11T16:19:48;15.00;;;10.77;;
16502;SDS011;53067;48.114;11.694;2023-02-11T16:22:24;14.87;;;10.57;;
16502;SDS011;53067;48.114;11.694;2023-02-11T16:24:56;15.63;;;9.87;;
16502;SDS011;53067;48.114;11.694;2023-02-11T16:27:25;22.03;;;10.80;;
16502;SDS011;53067;48.114;11.694;2023-02-11T16:29:55;20.93;;;10.97;;
16502;SDS011;53067;48.114;11.694;2023-02-11T16:32:24;18.57;;;10.40;;
16502;SDS011;53067;48.114;11.694;2023-02-11T16:34:54;17.77;;;9.80;;
16502;SDS011;53067;48.114;11.694;2023-02-11T16:37:24;17.20;;;10.27;;
16502;SDS011;53067;48.114;11.694;2023-02-11T16:39:52;21.57;;;10.57;;
16502;SDS011;53067;48.114;11.694;2023-02-11T16:42:22;24.10;;;11.90;;
16502;SDS011;53067;48.114;11.694;2023-02-11T16:44:50;28.03;;;11.07;;
16502;SDS011;53067;48.114;11.694;2023-02-11T16:47:21;20.47;;;11.67;;
16502;SDS011;53067;48.114;11.694;2023-02-11T16:49:51;24.03;;;11.87;;
16502;SDS011;53067;48.114;11.694;2023-02-11T16:52:20;19.77;;;11.63;;
16502;SDS011;53067;48.114;11.694;2023-02-11T16:54:48;18.37;;;11.23;;
16502;SDS011;53067;48.114;11.694;2023-02-11T16:57:17;20.97;;;11.57;;
16502;SDS011;53067;48.114;11.694;2023-02-11T16:59:47;21.13;;;11.70;;
16502;SDS011;53067;48.114;11.694;2023-02-11T17:02:17;22.43;;;13.63;;
16502;SDS011;53067;48.114;11.694;2023-02-11T17:04:52;21.17;;;12.57;;
16502;SDS011;53067;48.114;11.694;2023-02-11T17:07:21;25.30;;;13.60;;
16502;SDS011;53067;48.114;11.694;2023-02-11T17:09:49;28.43;;;14.30;;
16502;SDS011;53067;48.114;11.694;2023-02-11T17:12:17;32.53;;;18.17;;
16502;SDS011;53067;48.114;11.694;2023-02-11T17:14:45;34.73;;;19.47;;
16502;SDS011;53067;48.114;11.694;2023-02-11T17:17:13;33.73;;;18.83;;
16502;SDS011;53067;48.114;11.694;2023-02-11T17:19:41;44.50;;;18.33;;